WetterOnline ( https://www.wetteronline.ch )

Wetter aktuell Harzgerode

Aktuelles Wetter: Harzgerode (405m)

6-stündlich | Neueste Meldungen
Ortszeit Temperatur Wetter
Mo, 30.11. 7:00 -0.6° C bedeckt
Mo, 30.11. 1:00 0.2° C bedeckt
So, 29.11. 19:00 0.9° C bedeckt
So, 29.11. 13:00 1.7° C bedeckt
So, 29.11. 7:00 -0.3° C bedeckt
So, 29.11. 1:00 0.3° C bedeckt
Sa, 28.11. 19:00 -0.7° C bedeckt
Sa, 28.11. 13:00 1.1° C bedeckt
Ortszeit Temperatur Wetter
Mo, 30.11. 12:00 0.7° C wolkenlos
Mo, 30.11. 11:50 0.7° C wolkenlos
Mo, 30.11. 11:40 0.5° C wolkenlos
Mo, 30.11. 11:30 0.2° C fast wolkenlos
Mo, 30.11. 11:20 0.2° C fast wolkenlos
Mo, 30.11. 11:10 0.2° C fast wolkenlos
Mo, 30.11. 11:00 0.3° C leicht bewölkt
Mo, 30.11. 10:30 -0.0° C wolkig
Mo, 30.11. 10:00 -0.3° C bedeckt
Mo, 30.11. 9:30 -0.2° C bedeckt
Mo, 30.11. 9:00 -0.3° C bedeckt
Ortszeit Relative Feuchte Sichtweite
Mo, 30.11. 7:00 70% 65 km
Mo, 30.11. 1:00 76% >70 km
So, 29.11. 19:00 75% 55 km
So, 29.11. 13:00 68% >70 km
So, 29.11. 7:00 89% 21 km
So, 29.11. 1:00 81% 55 km
Sa, 28.11. 19:00 90% 17 km
Sa, 28.11. 13:00 92% 12 km
Ortszeit Relative Feuchte Sichtweite
Mo, 30.11. 12:00 72% 35 km
Mo, 30.11. 11:50 72% -
Mo, 30.11. 11:40 72% -
Mo, 30.11. 11:30 74% 35 km
Mo, 30.11. 11:20 74% -
Mo, 30.11. 11:10 72% -
Mo, 30.11. 11:00 73% 45 km
Mo, 30.11. 10:30 74% 40 km
Mo, 30.11. 10:00 73% 50 km
Mo, 30.11. 9:30 73% 60 km
Mo, 30.11. 9:00 73% 60 km
Ortszeit Niederschlagsmenge Niederschlagsart
Mo, 30.11. 7:00 0.0 l/m2 in 12 Std. -
Mo, 30.11. 1:00 0.0 l/m2 in 6 Std. -
So, 29.11. 19:00 0.0 l/m2 in 12 Std. -
So, 29.11. 13:00 0.0 l/m2 in 6 Std. -
So, 29.11. 7:00 0.0 l/m2 in 12 Std. -
So, 29.11. 1:00 0.0 l/m2 in 6 Std. -
Sa, 28.11. 19:00 0.1 l/m2 in 12 Std. -
Sa, 28.11. 13:00 0.1 l/m2 in 6 Std. Sprühregen
Ortszeit Niederschlagsmenge Niederschlagsart
Mo, 30.11. 12:00 0.0 l/m2 in 1 Std. -
Mo, 30.11. 11:50 keine Meldung -
Mo, 30.11. 11:40 keine Meldung -
Mo, 30.11. 11:30 0.0 l/m2 in 1 Std. -
Mo, 30.11. 11:20 keine Meldung -
Mo, 30.11. 11:10 keine Meldung -
Mo, 30.11. 11:00 0.0 l/m2 in 1 Std. -
Mo, 30.11. 10:30 0.0 l/m2 in 1 Std. -
Mo, 30.11. 10:00 0.0 l/m2 in 1 Std. -
Mo, 30.11. 9:30 0.0 l/m2 in 1 Std. -
Mo, 30.11. 9:00 0.0 l/m2 in 1 Std. -
Ortszeit Stärke Spitze Richtung
km/h Bft. km/h Grad Sektor
Mo, 30.11. 7:00 15 3 28 240° SW
Mo, 30.11. 1:00 7 2 14 250° W
So, 29.11. 19:00 4 1 14 300° NW
So, 29.11. 13:00 7 2 14 30° NO
So, 29.11. 7:00 4 1 11 340° N
So, 29.11. 1:00 4 1 22 20° N
Sa, 28.11. 19:00 9 2 24 90° O
Sa, 28.11. 13:00 9 2 20 100° O
Ortszeit Stärke Spitze Richtung
km/h Bft. km/h Grad Sektor
Mo, 30.11. 12:00 20 4 31 230° SW
Mo, 30.11. 11:50 20 4 - 230° SW
Mo, 30.11. 11:40 20 4 - 220° SW
Mo, 30.11. 11:30 22 4 31 220° SW
Mo, 30.11. 11:20 22 4 - 220° SW
Mo, 30.11. 11:10 24 4 - 230° SW
Mo, 30.11. 11:00 18 3 29 220° SW
Mo, 30.11. 10:30 13 3 28 230° SW
Mo, 30.11. 10:00 14 3 22 210° SW
Mo, 30.11. 9:30 11 2 18 210° SW
Mo, 30.11. 9:00 9 2 19 230° SW
Ortszeit Untergrenze Bedeckung Gattung
total tief tief mittel hoch
Mo, 30.11. 7:00 630 m 8/8 8/8 - - -
Mo, 30.11. 1:00 630 m 8/8 8/8 - - -
So, 29.11. 19:00 660 m 8/8 8/8 - - -
So, 29.11. 13:00 630 m 8/8 8/8 - - -
So, 29.11. 7:00 690 m 8/8 8/8 - - -
So, 29.11. 1:00 750 m 8/8 8/8 - - -
Sa, 28.11. 19:00 210 m 8/8 8/8 - - -
Sa, 28.11. 13:00 210 m 8/8 8/8 - - -
Ortszeit Bedeckungsgrad in Achtel und Wolkenuntergrenze
Mo, 30.11. 12:00 keine Wolken
Mo, 30.11. 11:50 keine Wolken
Mo, 30.11. 11:40 keine Wolken
Mo, 30.11. 11:30 1(510m)
Mo, 30.11. 11:20 1(510m)
Mo, 30.11. 11:10 1(510m)
Mo, 30.11. 11:00 4(540m)
Mo, 30.11. 10:30 6(570m)
Mo, 30.11. 10:00 8(600m)
Mo, 30.11. 9:30 8(630m)
Mo, 30.11. 9:00 8(630m)
Ortszeit Luftdruck NN (hPa) Tendenz (hPa in 3 Std.)
Mo, 30.11. 7:00 1028 0,0
Mo, 30.11. 1:00 1028 - 0,6
So, 29.11. 19:00 1028 + 0,7
So, 29.11. 13:00 1027 - 0,5
So, 29.11. 7:00 1027 + 0,1
So, 29.11. 1:00 1027 - 0,2
Sa, 28.11. 19:00 1027 + 1,3
Sa, 28.11. 13:00 1025 + 0,2
Ortszeit Luftdruck NN (hPa) Tendenz (hPa in 3 Std.)
Mo, 30.11. 12:00 1025 - 1,6
Mo, 30.11. 11:50 1025 keine Meldung
Mo, 30.11. 11:40 1025 keine Meldung
Mo, 30.11. 11:30 1026 - 1,0
Mo, 30.11. 11:20 1026 keine Meldung
Mo, 30.11. 11:10 1026 keine Meldung
Mo, 30.11. 11:00 1026 - 0,6
Mo, 30.11. 10:30 1027 - 0,5
Mo, 30.11. 10:00 1027 - 0,8
Mo, 30.11. 9:30 1027 - 0,6
Mo, 30.11. 9:00 1027 - 0,5
Ortszeit Schneehöhe (cm)
Mo, 30.11. 7:00 0
Mo, 30.11. 1:00 0
So, 29.11. 19:00 0
So, 29.11. 13:00 0
So, 29.11. 7:00 0
So, 29.11. 1:00 0
Sa, 28.11. 19:00 0
Sa, 28.11. 13:00 0
Ortszeit Schneehöhe (cm)
Mo, 30.11. 12:00 0
Mo, 30.11. 11:50 0
Mo, 30.11. 11:40 0
Mo, 30.11. 11:30 0
Mo, 30.11. 11:20 0
Mo, 30.11. 11:10 0
Mo, 30.11. 11:00 0
Mo, 30.11. 10:30 0
Mo, 30.11. 10:00 0
Mo, 30.11. 9:30 0
Mo, 30.11. 9:00 0
Link zu dieser Seite / Seite empfehlen

Das Wetter in ...